Time;durP1;ratioP1;P1;durP2;ratioP2;P2;SDS_P1;SDS_P2;PMS_P1;PMS_P2;Temp;Humidity;BMP_temperature;BMP_pressure;BME280_temperature;BME280_humidity;BME280_pressure;Samples;Min_cycle;Max_cycle;Signal;HPM_P1;HPM_P2
2021/12/23 00:00:33;;;;;;;11.07;10.27;;;13.00;99.90;;;;;;5067902;28;20052;-76
2021/12/23 00:03:00;;;;;;;10.93;9.75;;;12.90;99.90;;;;;;5067590;28;20182;-77
2021/12/23 00:05:25;;;;;;;13.02;9.75;;;13.00;99.90;;;;;;5067672;28;20032;-76
2021/12/23 00:07:51;;;;;;;10.40;9.55;;;13.00;99.90;;;;;;5067580;28;20039;-75
2021/12/23 00:10:17;;;;;;;11.13;8.43;;;13.00;99.90;;;;;;5066450;28;20021;-77
2021/12/23 00:12:45;;;;;;;9.52;8.77;;;13.00;99.90;;;;;;5066197;28;20121;-76
2021/12/23 00:15:37;;;;;;;11.93;9.38;;;13.00;99.90;;;;;;5066299;28;20162;-77
2021/12/23 00:18:58;;;;;;;10.77;9.13;;;13.00;99.90;;;;;;5066194;28;20119;-76
2021/12/23 00:23:36;;;;;;;13.90;9.15;;;13.00;99.90;;;;;;5066627;28;20042;-78
2021/12/23 00:26:03;;;;;;;14.27;9.48;;;13.00;99.90;;;;;;5067569;28;20024;-78
2021/12/23 00:28:30;;;;;;;13.10;9.48;;;13.00;99.90;;;;;;5067360;28;20021;-77
2021/12/23 00:30:57;;;;;;;10.60;7.28;;;13.00;99.90;;;;;;5067437;28;20089;-77
2021/12/23 00:33:23;;;;;;;12.10;7.53;;;13.00;99.90;;;;;;5066075;28;20060;-77
2021/12/23 00:35:50;;;;;;;11.85;8.43;;;13.00;99.90;;;;;;5066083;28;20051;-78
2021/12/23 00:38:21;;;;;;;10.18;8.57;;;13.00;99.90;;;;;;5067225;28;20061;-77
2021/12/23 00:40:47;;;;;;;13.20;8.25;;;13.00;99.90;;;;;;5066052;28;20029;-78
2021/12/23 00:43:13;;;;;;;9.48;8.18;;;13.00;99.90;;;;;;5066039;28;20033;-77
2021/12/23 00:45:39;;;;;;;12.52;9.98;;;13.00;99.90;;;;;;5067291;28;20033;-76
2021/12/23 00:48:05;;;;;;;12.00;7.97;;;13.10;99.90;;;;;;5065728;28;20122;-76
2021/12/23 00:50:30;;;;;;;9.07;8.00;;;13.10;99.90;;;;;;5065896;28;20040;-77
2021/12/23 00:52:59;;;;;;;12.38;7.40;;;13.10;99.90;;;;;;5067447;28;20378;-79
2021/12/23 00:55:25;;;;;;;9.38;6.63;;;13.10;99.90;;;;;;5065727;28;20273;-77
2021/12/23 00:57:51;;;;;;;6.68;6.07;;;13.10;99.90;;;;;;5067002;28;20092;-77
2021/12/23 01:00:20;;;;;;;9.00;6.30;;;13.10;99.90;;;;;;5069604;28;20036;-78
2021/12/23 01:02:47;;;;;;;9.82;7.55;;;13.10;99.90;;;;;;5053144;28;20052;-76
2021/12/23 01:05:16;;;;;;;8.00;7.07;;;13.10;99.90;;;;;;5069677;28;20047;-78
2021/12/23 01:07:42;;;;;;;9.00;6.85;;;13.20;99.90;;;;;;5070895;28;20028;-78
2021/12/23 01:10:08;;;;;;;7.85;7.15;;;13.20;99.90;;;;;;5069542;28;20051;-75
2021/12/23 01:12:47;;;;;;;8.98;6.45;;;13.20;99.90;;;;;;5070733;28;20103;-76
2021/12/23 01:15:27;;;;;;;7.80;6.80;;;13.20;99.90;;;;;;5069509;28;20449;-76
2021/12/23 01:18:00;;;;;;;7.68;6.88;;;13.20;99.90;;;;;;5070466;28;20051;-76
2021/12/23 01:20:31;;;;;;;9.18;8.30;;;13.20;99.90;;;;;;5070710;28;20028;-76
2021/12/23 01:23:01;;;;;;;8.25;6.57;;;13.20;99.90;;;;;;5070618;28;20016;-77
2021/12/23 01:25:28;;;;;;;8.85;7.15;;;13.20;99.90;;;;;;5070631;28;20532;-76
2021/12/23 01:27:54;;;;;;;9.13;8.32;;;13.20;99.90;;;;;;5070329;28;20390;-78
2021/12/23 01:30:20;;;;;;;10.00;9.00;;;13.10;99.90;;;;;;5070682;28;20021;-77
2021/12/23 01:32:48;;;;;;;10.00;9.05;;;13.10;99.90;;;;;;5070503;28;20029;-77
2021/12/23 01:35:14;;;;;;;10.05;9.15;;;13.10;99.90;;;;;;5070394;28;20055;-76
2021/12/23 01:37:41;;;;;;;;;;;13.10;99.90;;;;;;5071120;28;20025;-78
2021/12/23 01:40:08;;;;;;;9.10;8.20;;;13.20;99.90;;;;;;5068997;28;19927;-78
2021/12/23 01:42:34;;;;;;;8.30;7.70;;;13.10;99.90;;;;;;5070457;28;20027;-77
2021/12/23 01:45:00;;;;;;;9.68;8.98;;;13.20;99.90;;;;;;5070210;28;20029;-77
2021/12/23 01:47:26;;;;;;;8.52;7.80;;;13.10;99.90;;;;;;5068717;28;20085;-76
2021/12/23 01:49:52;;;;;;;10.20;8.10;;;13.10;99.90;;;;;;5070075;28;20016;-78
2021/12/23 01:52:18;;;;;;;8.40;6.65;;;13.10;99.90;;;;;;5070177;28;20033;-76
2021/12/23 01:54:44;;;;;;;8.52;5.90;;;13.20;99.90;;;;;;5068857;28;20051;-77
2021/12/23 01:57:12;;;;;;;7.15;6.50;;;13.20;99.90;;;;;;5069982;28;20085;-77
2021/12/23 01:59:38;;;;;;;8.65;7.97;;;13.20;99.90;;;;;;5069900;28;20024;-77
2021/12/23 02:02:04;;;;;;;6.57;6.07;;;13.20;99.90;;;;;;5068754;28;20035;-78
2021/12/23 02:04:29;;;;;;;;;;;13.20;99.90;;;;;;5070115;28;20099;-77
2021/12/23 02:06:55;;;;;;;7.68;6.88;;;13.20;99.90;;;;;;5069816;28;20341;-78
2021/12/23 02:09:21;;;;;;;7.50;6.80;;;13.20;99.90;;;;;;5069609;28;20043;-77
2021/12/23 02:11:47;;;;;;;8.43;7.63;;;13.20;99.90;;;;;;5069156;28;20033;-76
2021/12/23 02:14:13;;;;;;;8.68;7.97;;;13.20;99.90;;;;;;5068539;28;20123;-77
2021/12/23 02:16:38;;;;;;;;;;;13.20;99.90;;;;;;5052160;28;20066;-79
2021/12/23 02:19:13;;;;;;;7.95;7.15;;;13.20;99.90;;;;;;5051537;28;20005;-77
2021/12/23 02:21:42;;;;;;;9.20;8.32;;;13.20;99.90;;;;;;5068316;28;20112;-77
2021/12/23 02:24:08;;;;;;;8.85;8.05;;;13.10;99.90;;;;;;5068118;28;20482;-77
2021/12/23 02:26:38;;;;;;;8.38;7.68;;;13.20;99.90;;;;;;5069549;28;20059;-77
2021/12/23 02:29:04;;;;;;;7.20;6.50;;;13.20;99.90;;;;;;5069694;28;20099;-77
2021/12/23 02:31:29;;;;;;;7.88;7.28;;;13.10;99.90;;;;;;5069279;28;20527;-79
2021/12/23 02:33:55;;;;;;;7.00;5.38;;;13.20;99.90;;;;;;5069469;28;20119;-79
2021/12/23 02:36:21;;;;;;;9.60;6.57;;;13.20;99.90;;;;;;5068045;28;20498;-78
2021/12/23 02:38:46;;;;;;;11.15;5.85;;;13.20;99.90;;;;;;5067882;28;20051;-77
2021/12/23 02:41:12;;;;;;;6.68;5.20;;;13.20;99.90;;;;;;5067948;28;20592;-78
2021/12/23 02:43:38;;;;;;;6.43;5.45;;;13.20;99.90;;;;;;5069107;28;20047;-77
2021/12/23 02:46:03;;;;;;;6.22;5.63;;;13.20;99.90;;;;;;5067783;28;20029;-77
2021/12/23 02:48:34;;;;;;;7.72;5.60;;;13.20;99.90;;;;;;5067661;28;20043;-79
2021/12/23 02:51:02;;;;;;;8.15;6.30;;;13.20;99.90;;;;;;5067689;28;20075;-76
2021/12/23 02:53:28;;;;;;;7.63;6.88;;;13.20;99.90;;;;;;5068879;28;20067;-77
2021/12/23 02:55:55;;;;;;;7.60;6.22;;;13.20;99.90;;;;;;5068836;28;20406;-76
2021/12/23 02:58:21;;;;;;;7.32;5.78;;;13.20;99.90;;;;;;5068784;28;20064;-77
2021/12/23 03:00:51;;;;;;;5.93;5.43;;;13.20;99.90;;;;;;5067575;28;20067;-78
2021/12/23 03:03:18;;;;;;;9.43;6.07;;;13.20;99.90;;;;;;5067315;28;20041;-77
2021/12/23 03:05:51;;;;;;;6.32;5.72;;;13.20;99.90;;;;;;5068637;28;20031;-77
2021/12/23 03:08:31;;;;;;;7.43;5.15;;;13.20;99.90;;;;;;5068664;28;20024;-79
2021/12/23 03:10:57;;;;;;;6.22;4.90;;;13.30;99.90;;;;;;5068519;28;20023;-78
2021/12/23 03:13:23;;;;;;;8.10;4.15;;;13.30;99.90;;;;;;5067243;28;20107;-77
2021/12/23 03:15:49;;;;;;;6.43;4.70;;;13.30;99.90;;;;;;5068505;28;20108;-76
2021/12/23 03:18:15;;;;;;;11.52;5.60;;;13.30;99.90;;;;;;5067012;28;20042;-77
2021/12/23 03:20:41;;;;;;;6.28;5.10;;;13.30;99.90;;;;;;5050454;28;20530;-77
2021/12/23 03:23:06;;;;;;;8.00;5.55;;;13.30;99.90;;;;;;5067044;28;20115;-77
2021/12/23 03:25:32;;;;;;;7.25;5.70;;;13.30;99.90;;;;;;5068249;28;20105;-77
2021/12/23 03:27:58;;;;;;;9.00;6.10;;;13.30;99.90;;;;;;5066970;28;20025;-77
2021/12/23 03:30:24;;;;;;;7.88;6.88;;;13.30;99.90;;;;;;5068202;28;20063;-78
2021/12/23 03:32:49;;;;;;;;;;;13.30;99.90;;;;;;5067160;28;20047;-78
2021/12/23 03:35:16;;;;;;;10.10;6.63;;;13.30;99.90;;;;;;5068098;28;19913;-77
2021/12/23 03:37:43;;;;;;;10.02;7.25;;;13.30;99.90;;;;;;5050558;28;20071;-77
2021/12/23 03:40:09;;;;;;;10.05;7.28;;;13.20;99.90;;;;;;5067985;28;20025;-78
2021/12/23 03:42:35;;;;;;;;;;;13.20;99.90;;;;;;5067292;28;20032;-79
2021/12/23 03:45:01;;;;;;;9.15;5.32;;;13.20;99.90;;;;;;5067959;28;20367;-78
2021/12/23 03:47:27;;;;;;;8.85;6.78;;;13.20;99.90;;;;;;5067758;28;20390;-77
2021/12/23 03:49:52;;;;;;;12.40;6.43;;;13.20;99.90;;;;;;5049838;28;20127;-79
2021/12/23 03:52:18;;;;;;;11.48;5.85;;;13.20;99.90;;;;;;5066723;28;20061;-78
2021/12/23 03:54:44;;;;;;;8.95;5.70;;;13.30;99.90;;;;;;5067981;28;20364;-77
2021/12/23 03:57:10;;;;;;;8.52;6.03;;;13.30;99.90;;;;;;5066674;28;20033;-76
2021/12/23 03:59:35;;;;;;;8.75;6.07;;;13.30;99.90;;;;;;5067767;28;20043;-78
2021/12/23 04:02:02;;;;;;;14.30;4.72;;;13.30;99.90;;;;;;5067722;28;20025;-78
2021/12/23 04:04:27;;;;;;;15.40;6.35;;;13.30;99.90;;;;;;5067655;28;20044;-75
2021/12/23 04:06:53;;;;;;;9.63;6.13;;;13.30;99.90;;;;;;5066720;28;20040;-78
2021/12/23 04:09:19;;;;;;;9.82;5.55;;;13.30;99.90;;;;;;5067682;28;20113;-77
2021/12/23 04:11:45;;;;;;;11.38;5.63;;;13.30;99.90;;;;;;5067668;28;20082;-75
2021/12/23 04:14:10;;;;;;;12.65;5.50;;;13.30;99.90;;;;;;5067603;28;20241;-79
2021/12/23 04:16:36;;;;;;;14.00;6.15;;;13.30;99.90;;;;;;5067693;28;20098;-76
2021/12/23 04:19:07;;;;;;;17.75;6.03;;;13.30;99.90;;;;;;5049497;28;20032;-77
2021/12/23 04:21:33;;;;;;;12.27;7.13;;;13.30;99.90;;;;;;5050070;28;20128;-76
2021/12/23 04:23:58;;;;;;;18.90;6.13;;;13.30;99.90;;;;;;5067493;28;20462;-77
2021/12/23 04:26:24;;;;;;;18.58;5.90;;;13.30;99.90;;;;;;5066174;28;20037;-76
2021/12/23 04:28:51;;;;;;;13.85;5.57;;;13.30;99.90;;;;;;5066160;28;20033;-77
2021/12/23 04:31:19;;;;;;;15.27;6.10;;;13.30;99.90;;;;;;5049531;28;20215;-78
2021/12/23 04:33:48;;;;;;;17.52;5.60;;;13.30;99.90;;;;;;5067608;28;20029;-79
2021/12/23 04:36:16;;;;;;;9.50;5.40;;;13.30;99.90;;;;;;5071597;28;20024;-76
2021/12/23 04:38:43;;;;;;;12.45;5.38;;;13.30;99.90;;;;;;5071551;28;20112;-77
2021/12/23 04:41:10;;;;;;;17.13;6.13;;;13.40;99.90;;;;;;5070229;28;20040;-77
2021/12/23 04:43:36;;;;;;;12.13;4.00;;;13.40;99.90;;;;;;5069992;28;20060;-78
2021/12/23 04:46:03;;;;;;;9.68;4.53;;;13.40;99.90;;;;;;5071307;28;20386;-78
2021/12/23 04:48:28;;;;;;;;;;;13.40;99.90;;;;;;5071694;28;20510;-76
2021/12/23 04:50:54;;;;;;;18.40;5.28;;;13.40;99.90;;;;;;5071267;28;19947;-78
2021/12/23 04:53:20;;;;;;;13.02;5.35;;;13.40;99.90;;;;;;5069838;28;20437;-77
2021/12/23 04:55:46;;;;;;;13.40;4.68;;;13.40;99.90;;;;;;5053223;28;20047;-78
2021/12/23 04:58:11;;;;;;;13.18;6.60;;;13.40;99.90;;;;;;5070971;28;20505;-78
2021/12/23 05:00:37;;;;;;;10.15;5.72;;;13.40;99.90;;;;;;5069914;28;20028;-76
2021/12/23 05:03:03;;;;;;;6.68;5.22;;;13.40;99.90;;;;;;5070814;28;20403;-78
2021/12/23 05:05:29;;;;;;;11.98;5.75;;;13.40;99.90;;;;;;5052897;28;20072;-78
2021/12/23 05:07:56;;;;;;;10.52;5.78;;;13.40;99.90;;;;;;5069534;28;20033;-78
2021/12/23 05:10:22;;;;;;;10.85;5.63;;;13.40;99.90;;;;;;5070892;28;20062;-77
2021/12/23 05:12:48;;;;;;;8.75;4.40;;;13.50;99.90;;;;;;5070743;28;20416;-77
2021/12/23 05:15:16;;;;;;;11.15;4.45;;;13.50;99.90;;;;;;5069651;28;20032;-76
2021/12/23 05:17:43;;;;;;;5.40;4.60;;;13.50;99.90;;;;;;5070735;28;20060;-77
2021/12/23 05:20:11;;;;;;;6.82;4.05;;;13.50;99.90;;;;;;5070752;28;20040;-76
2021/12/23 05:22:37;;;;;;;7.38;3.42;;;13.50;99.90;;;;;;5070501;28;20035;-77
2021/12/23 05:25:04;;;;;;;7.00;4.13;;;13.50;99.90;;;;;;5069231;28;20029;-77
2021/12/23 05:27:30;;;;;;;8.30;4.00;;;13.60;99.90;;;;;;5069057;28;20025;-76
2021/12/23 05:29:55;;;;;;;5.57;3.83;;;13.60;99.90;;;;;;5052654;28;20043;-76
2021/12/23 05:32:21;;;;;;;9.75;3.33;;;13.60;99.90;;;;;;5069145;28;20483;-77
2021/12/23 05:34:47;;;;;;;7.78;3.30;;;13.60;99.90;;;;;;5069062;28;20326;-76
2021/12/23 05:37:12;;;;;;;7.22;2.80;;;13.60;99.90;;;;;;5069105;28;20475;-77
2021/12/23 05:39:38;;;;;;;6.10;2.85;;;13.70;99.90;;;;;;5070263;28;20024;-77
2021/12/23 05:42:04;;;;;;;4.82;2.83;;;13.70;99.90;;;;;;5070237;28;20064;-78
2021/12/23 05:44:30;;;;;;;4.90;2.42;;;13.70;99.90;;;;;;5067972;28;20024;-77
2021/12/23 05:46:56;;;;;;;3.33;2.33;;;13.70;99.90;;;;;;5068514;28;20048;-78
2021/12/23 05:49:22;;;;;;;3.85;2.53;;;13.80;99.90;;;;;;5070205;28;20032;-76
2021/12/23 05:51:48;;;;;;;2.45;1.95;;;13.80;99.90;;;;;;5068939;28;20039;-77
2021/12/23 05:54:14;;;;;;;2.60;1.70;;;13.80;99.90;;;;;;5070172;28;20025;-77
2021/12/23 05:56:40;;;;;;;3.33;1.90;;;13.80;99.90;;;;;;5070005;28;20559;-78
2021/12/23 05:59:05;;;;;;;1.48;1.38;;;13.80;99.90;;;;;;5068598;28;20060;-77
2021/12/23 06:01:31;;;;;;;1.30;1.20;;;13.80;99.90;;;;;;5070452;28;20376;-76
2021/12/23 06:03:57;;;;;;;1.65;1.30;;;13.90;99.90;;;;;;5068236;28;20079;-76
2021/12/23 06:06:23;;;;;;;1.75;1.20;;;13.90;99.90;;;;;;5035462;28;20131;-78
2021/12/23 06:08:49;;;;;;;1.00;0.85;;;13.90;99.90;;;;;;5069830;28;20099;-76
2021/12/23 06:11:14;;;;;;;0.70;0.70;;;13.90;99.90;;;;;;5068368;28;20024;-78
2021/12/23 06:13:40;;;;;;;0.80;0.80;;;13.90;99.90;;;;;;5069981;28;20028;-77
2021/12/23 06:16:06;;;;;;;0.85;0.85;;;14.00;99.90;;;;;;5068252;28;20215;-76
2021/12/23 06:18:32;;;;;;;0.80;0.80;;;14.00;99.90;;;;;;5069515;28;20032;-79
2021/12/23 06:20:57;;;;;;;1.25;0.90;;;14.00;99.90;;;;;;5068317;28;20037;-76
2021/12/23 06:23:23;;;;;;;1.35;1.10;;;14.00;99.90;;;;;;5069598;28;20063;-78
2021/12/23 06:25:49;;;;;;;1.30;1.20;;;14.00;99.90;;;;;;5068235;28;20028;-77
2021/12/23 06:28:15;;;;;;;1.10;1.00;;;14.00;99.90;;;;;;5069136;28;20485;-78
2021/12/23 06:30:40;;;;;;;2.63;1.30;;;13.90;99.90;;;;;;5069497;28;20040;-77
2021/12/23 06:33:07;;;;;;;1.10;1.05;;;13.90;99.90;;;;;;5069312;28;20090;-77
2021/12/23 06:35:32;;;;;;;;;;;13.90;99.90;;;;;;5051822;28;20025;-78
2021/12/23 06:38:05;;;;;;;1.40;1.30;;;13.80;99.90;;;;;;5067841;28;19911;-78
2021/12/23 06:40:30;;;;;;;1.40;1.30;;;13.80;99.90;;;;;;5069191;28;20025;-75
2021/12/23 06:42:56;;;;;;;1.48;1.38;;;13.70;99.90;;;;;;5069260;28;20058;-78
2021/12/23 06:45:22;;;;;;;1.45;1.30;;;13.70;99.90;;;;;;5068982;28;20076;-76
2021/12/23 06:47:48;;;;;;;1.70;1.50;;;13.70;99.90;;;;;;5069016;28;20494;-76
2021/12/23 06:50:16;;;;;;;1.50;1.40;;;13.70;99.90;;;;;;5067637;28;20485;-75
2021/12/23 06:52:42;;;;;;;1.40;1.30;;;13.70;99.90;;;;;;5067545;28;20043;-77
2021/12/23 06:55:10;;;;;;;1.73;1.63;;;13.60;99.90;;;;;;5050954;28;20050;-78
2021/12/23 06:57:36;;;;;;;1.50;1.40;;;13.60;99.90;;;;;;5066917;28;20031;-76
2021/12/23 07:00:05;;;;;;;2.03;1.83;;;13.60;99.90;;;;;;5050786;28;20037;-77
2021/12/23 07:02:31;;;;;;;2.15;1.95;;;13.50;99.90;;;;;;5068754;28;20034;-77
2021/12/23 07:04:57;;;;;;;2.03;1.80;;;13.50;99.90;;;;;;5067216;28;20052;-77
2021/12/23 07:07:39;;;;;;;1.85;1.63;;;13.50;99.90;;;;;;5068729;28;20505;-76
2021/12/23 07:10:06;;;;;;;2.00;1.80;;;13.50;99.90;;;;;;5068601;28;20037;-77
2021/12/23 07:12:31;;;;;;;2.58;2.00;;;13.50;99.90;;;;;;5050608;28;20025;-77
2021/12/23 07:14:57;;;;;;;3.35;2.17;;;13.60;99.90;;;;;;5067382;28;20035;-77
2021/12/23 07:17:23;;;;;;;3.10;2.30;;;13.60;99.90;;;;;;5068349;28;20083;-76
2021/12/23 07:19:48;;;;;;;2.10;1.90;;;13.60;99.90;;;;;;5050684;28;20066;-76
2021/12/23 07:22:14;;;;;;;2.28;2.08;;;13.70;99.90;;;;;;5066939;28;20036;-76
2021/12/23 07:24:41;;;;;;;2.28;1.90;;;13.70;99.90;;;;;;5068214;28;20049;-78
2021/12/23 07:27:07;;;;;;;2.35;1.80;;;13.70;99.90;;;;;;5068012;28;20477;-76
2021/12/23 07:29:33;;;;;;;;;;;13.70;99.90;;;;;;5067295;28;20041;-76
2021/12/23 07:31:59;;;;;;;2.88;2.58;;;13.70;99.90;;;;;;5068303;28;19909;-78
2021/12/23 07:34:25;;;;;;;4.07;2.80;;;13.70;99.90;;;;;;5068073;28;20079;-78
2021/12/23 07:36:51;;;;;;;3.75;3.08;;;13.70;99.90;;;;;;5067885;28;20052;-78
2021/12/23 07:39:17;;;;;;;3.50;2.63;;;13.70;99.90;;;;;;5067864;28;20553;-77
2021/12/23 07:41:43;;;;;;;4.63;2.90;;;13.70;99.90;;;;;;5066682;28;20470;-77
2021/12/23 07:44:19;;;;;;;3.05;2.75;;;13.70;99.90;;;;;;5066536;28;20051;-77
2021/12/23 07:46:45;;;;;;;3.30;3.00;;;13.70;99.90;;;;;;5067830;28;20028;-75
2021/12/23 07:49:10;;;;;;;3.10;2.63;;;13.70;99.90;;;;;;5066552;28;20032;-77
2021/12/23 07:51:36;;;;;;;4.57;2.95;;;13.70;99.90;;;;;;5066525;28;20448;-78
2021/12/23 07:54:02;;;;;;;4.25;3.00;;;13.70;99.90;;;;;;5066245;28;20035;-77
2021/12/23 07:56:28;;;;;;;5.38;3.40;;;13.70;99.90;;;;;;5067686;28;20036;-78
2021/12/23 07:58:54;;;;;;;3.60;3.28;;;13.70;99.90;;;;;;5067448;28;20029;-76
2021/12/23 08:01:20;;;;;;;4.90;3.47;;;13.70;99.90;;;;;;5066389;28;20039;-76
2021/12/23 08:03:46;;;;;;;3.30;3.00;;;13.70;99.90;;;;;;5066210;28;20056;-75
2021/12/23 08:06:11;;;;;;;;;;;13.70;99.90;;;;;;5066537;28;20070;-77
2021/12/23 08:08:38;;;;;;;3.70;3.40;;;13.70;99.90;;;;;;5065503;28;19904;-77
2021/12/23 08:11:06;;;;;;;3.55;3.22;;;13.70;99.90;;;;;;5067434;28;20488;-77
2021/12/23 08:13:32;;;;;;;5.97;3.65;;;13.70;99.90;;;;;;5067245;28;20032;-77
2021/12/23 08:15:58;;;;;;;3.28;2.97;;;13.80;99.90;;;;;;5067429;28;20102;-76
2021/12/23 08:18:24;;;;;;;3.92;3.40;;;13.80;99.90;;;;;;5066029;28;20086;-75
2021/12/23 08:20:50;;;;;;;3.88;3.20;;;13.80;99.90;;;;;;5067553;28;20214;-76
2021/12/23 08:23:16;;;;;;;4.85;2.88;;;13.80;99.90;;;;;;5066001;28;20505;-77
2021/12/23 08:25:42;;;;;;;5.32;3.08;;;13.80;99.90;;;;;;5067219;28;20061;-76
2021/12/23 08:28:07;;;;;;;3.95;3.33;;;13.80;99.90;;;;;;5065548;28;20039;-78
2021/12/23 08:30:34;;;;;;;3.40;2.50;;;13.80;99.90;;;;;;5067304;28;20025;-77
2021/12/23 08:33:00;;;;;;;4.25;2.90;;;13.80;99.90;;;;;;5067127;28;20453;-78
2021/12/23 08:35:26;;;;;;;4.30;3.35;;;13.80;99.90;;;;;;5066856;28;20032;-77
2021/12/23 08:37:52;;;;;;;5.53;3.05;;;13.80;99.90;;;;;;5067109;28;20045;-79
2021/12/23 08:40:20;;;;;;;6.13;3.47;;;13.80;99.90;;;;;;5066951;28;20112;-78
2021/12/23 08:42:47;;;;;;;4.85;3.20;;;13.80;99.90;;;;;;5066911;28;20052;-76
2021/12/23 08:45:13;;;;;;;8.82;3.72;;;13.90;99.90;;;;;;5065747;28;20043;-77
2021/12/23 08:47:39;;;;;;;10.23;3.70;;;13.80;99.90;;;;;;5066824;28;20032;-78
2021/12/23 08:50:07;;;;;;;8.02;3.28;;;13.80;99.90;;;;;;5067175;28;20027;-78
2021/12/23 08:52:34;;;;;;;6.35;3.78;;;13.90;99.90;;;;;;5065486;28;20027;-77
2021/12/23 08:55:01;;;;;;;5.88;3.50;;;13.80;99.90;;;;;;5066873;28;20025;-79
2021/12/23 08:57:27;;;;;;;6.55;3.30;;;13.80;99.90;;;;;;5065610;28;20112;-78
2021/12/23 08:59:53;;;;;;;9.57;4.22;;;13.80;99.90;;;;;;5066790;28;20117;-77
2021/12/23 09:02:19;;;;;;;7.50;3.20;;;13.80;99.90;;;;;;5067147;28;20060;-78
2021/12/23 09:04:44;;;;;;;7.97;3.30;;;13.80;99.90;;;;;;5065566;28;20045;-76
2021/12/23 09:07:12;;;;;;;6.20;3.72;;;13.80;99.90;;;;;;5067048;28;20040;-78
2021/12/23 09:09:38;;;;;;;8.75;3.65;;;13.80;99.90;;;;;;5052839;28;20425;-78
2021/12/23 09:12:07;;;;;;;9.80;4.20;;;13.70;99.90;;;;;;5066977;28;20032;-78
2021/12/23 09:14:34;;;;;;;5.72;3.80;;;13.80;99.90;;;;;;5066781;28;20039;-78
2021/12/23 09:17:00;;;;;;;9.63;4.60;;;13.80;99.90;;;;;;5065285;28;20048;-78
2021/12/23 09:19:26;;;;;;;11.77;3.33;;;13.80;99.90;;;;;;5067581;28;20053;-79
2021/12/23 09:21:52;;;;;;;8.57;3.85;;;13.80;99.90;;;;;;5069058;28;20025;-76
2021/12/23 09:24:19;;;;;;;9.95;4.05;;;13.80;99.90;;;;;;5070302;28;20032;-77
2021/12/23 09:26:55;;;;;;;12.57;3.80;;;13.80;99.90;;;;;;5068411;28;20021;-77
2021/12/23 09:34:48;;;;;;;8.50;3.95;;;13.80;99.90;;;;;;5070321;28;20127;-77
2021/12/23 09:37:15;;;;;;;8.23;3.85;;;13.80;99.90;;;;;;5069876;28;20107;-77
2021/12/23 09:39:41;;;;;;;8.55;3.35;;;13.80;99.90;;;;;;5068347;28;20136;-78
2021/12/23 09:42:07;;;;;;;16.73;6.72;;;13.80;99.90;;;;;;5069557;28;20099;-78
2021/12/23 09:44:34;;;;;;;14.32;4.47;;;13.80;99.90;;;;;;5069570;28;20036;-78
2021/12/23 09:47:03;;;;;;;11.85;6.43;;;13.80;99.90;;;;;;5068506;28;20027;-78
2021/12/23 09:49:30;;;;;;;11.60;3.67;;;13.90;99.90;;;;;;5069724;28;20052;-77
2021/12/23 09:51:57;;;;;;;9.35;2.90;;;13.90;99.90;;;;;;5069521;28;20445;-77
2021/12/23 09:54:25;;;;;;;13.75;3.70;;;13.90;99.90;;;;;;5051706;28;20368;-77
2021/12/23 09:56:53;;;;;;;8.30;3.55;;;13.90;99.90;;;;;;5069631;28;20032;-78
2021/12/23 09:59:21;;;;;;;13.32;4.13;;;13.90;99.90;;;;;;5069690;28;20032;-77
2021/12/23 10:01:47;;;;;;;9.95;3.72;;;13.90;99.90;;;;;;5069696;28;20362;-77
2021/12/23 10:04:12;;;;;;;9.60;3.30;;;13.90;99.90;;;;;;5069076;28;20063;-77
2021/12/23 10:06:39;;;;;;;14.60;3.80;;;13.90;99.90;;;;;;5069514;28;20099;-77
2021/12/23 10:09:05;;;;;;;9.98;4.35;;;13.90;99.90;;;;;;5051693;28;20036;-76
2021/12/23 10:11:58;;;;;;;10.95;5.07;;;13.90;99.90;;;;;;5050347;28;20070;-73
2021/12/23 10:31:44;;;;;;;7.82;5.38;;;13.70;99.90;;;;;;5069018;28;20529;-76
2021/12/23 10:39:46;;;;;;;11.57;4.78;;;13.50;99.90;;;;;;5067778;28;20104;-75
2021/12/23 10:42:27;;;;;;;6.65;4.90;;;13.50;99.90;;;;;;5067941;28;20027;-75
2021/12/23 10:44:56;;;;;;;9.77;4.70;;;13.40;99.90;;;;;;5069336;28;20103;-76
2021/12/23 10:48:01;;;;;;;8.32;4.50;;;13.50;99.90;;;;;;5069611;28;20119;-76
2021/12/23 10:50:40;;;;;;;6.70;3.22;;;13.60;99.90;;;;;;5069352;28;20344;-76
2021/12/23 10:53:14;;;;;;;8.60;3.92;;;13.70;99.90;;;;;;5068019;28;20045;-76
2021/12/23 10:58:26;;;;;;;11.70;4.32;;;13.80;99.90;;;;;;5066450;28;20671;-78
2021/12/23 11:01:00;;;;;;;8.52;2.88;;;13.80;99.90;;;;;;5067962;28;20063;-72
2021/12/23 11:03:35;;;;;;;5.50;2.63;;;13.80;99.90;;;;;;5069607;28;20164;-76
2021/12/23 11:06:25;;;;;;;8.43;2.70;;;13.90;99.90;;;;;;5069338;28;20016;-75
2021/12/23 11:29:11;;;;;;;8.43;2.08;;;14.30;99.90;;;;;;5067806;28;20032;-73
2021/12/23 11:39:29;;;;;;;6.75;1.92;;;14.50;99.90;;;;;;5068869;28;20032;-74
2021/12/23 11:42:15;;;;;;;6.78;1.73;;;14.50;99.90;;;;;;5069311;28;20044;-78
2021/12/23 11:44:41;;;;;;;5.07;1.52;;;14.60;99.90;;;;;;5067734;28;20046;-78
2021/12/23 11:47:14;;;;;;;5.07;2.25;;;14.60;99.90;;;;;;5068105;28;20362;-79
2021/12/23 11:49:43;;;;;;;7.75;2.90;;;14.70;99.90;;;;;;5067638;28;20090;-76
2021/12/23 11:52:09;;;;;;;9.98;4.47;;;14.80;99.90;;;;;;5067238;28;20063;-76
2021/12/23 11:54:41;;;;;;;11.23;2.90;;;15.00;99.90;;;;;;5067738;28;20513;-76
2021/12/23 11:57:21;;;;;;;3.58;1.63;;;15.30;99.90;;;;;;5063229;28;20130;-75
2021/12/23 12:00:14;;;;;;;6.38;2.35;;;15.50;99.90;;;;;;5066066;28;20115;-76
2021/12/23 12:02:40;;;;;;;3.03;1.20;;;15.60;99.60;;;;;;5063438;28;20020;-76
2021/12/23 12:05:14;;;;;;;5.05;1.95;;;15.60;99.00;;;;;;5067275;28;20177;-72
2021/12/23 12:07:43;;;;;;;2.35;1.08;;;15.50;98.60;;;;;;5065129;28;20059;-72
2021/12/23 12:10:12;;;;;;;3.08;0.90;;;15.50;99.20;;;;;;5066770;28;20359;-70
2021/12/23 12:12:56;;;;;;;2.78;0.88;;;16.10;99.90;;;;;;5067573;28;20100;-76
2021/12/23 12:16:03;;;;;;;;;;;;;;;;;;;;;
2021/12/23 12:18:44;;;;;;;5.00;1.20;;;17.30;98.90;;;;;;5064777;28;20037;-76
2021/12/23 12:21:24;;;;;;;5.55;1.40;;;18.10;98.50;;;;;;5064309;28;20486;-76
2021/12/23 12:24:26;;;;;;;9.10;4.00;;;18.40;97.40;;;;;;5066481;28;20099;-77
2021/12/23 12:26:58;;;;;;;5.78;2.33;;;18.30;96.00;;;;;;5066624;28;20028;-76
2021/12/23 12:29:34;;;;;;;3.13;1.23;;;18.10;95.80;;;;;;5068154;28;20021;-74
2021/12/23 12:32:00;;;;;;;2.75;1.10;;;17.80;95.60;;;;;;5069105;28;20450;-74
2021/12/23 12:34:37;;;;;;;5.05;1.30;;;17.50;95.30;;;;;;5069498;28;20032;-76
2021/12/23 12:37:19;;;;;;;3.63;1.15;;;17.30;95.30;;;;;;5069017;28;20016;-76
2021/12/23 12:39:47;;;;;;;4.88;1.55;;;17.10;95.40;;;;;;5034634;28;20079;-77
2021/12/23 12:42:36;;;;;;;2.75;1.10;;;17.00;95.50;;;;;;5067500;28;20082;-77
2021/12/23 12:45:10;;;;;;;2.92;0.90;;;16.90;95.30;;;;;;5057455;28;20016;-78
2021/12/23 12:47:48;;;;;;;6.10;1.83;;;16.70;95.20;;;;;;5067144;28;20371;-78
2021/12/23 12:50:20;;;;;;;4.10;1.17;;;16.50;95.30;;;;;;5068068;28;20012;-76
2021/12/23 12:52:49;;;;;;;4.38;1.20;;;16.50;95.50;;;;;;5064969;28;20021;-77
2021/12/23 12:55:18;;;;;;;10.32;3.08;;;16.40;95.40;;;;;;5070137;28;20436;-72
2021/12/23 12:57:49;;;;;;;4.18;1.55;;;16.40;95.40;;;;;;5068021;28;20020;-78
2021/12/23 13:00:40;;;;;;;5.35;1.35;;;16.30;95.20;;;;;;5070780;28;20031;-77
2021/12/23 13:03:12;;;;;;;3.75;1.35;;;16.10;95.20;;;;;;5069469;28;20024;-75
2021/12/23 13:05:39;;;;;;;6.78;1.52;;;16.00;95.40;;;;;;5071649;28;20029;-74
2021/12/23 13:08:28;;;;;;;4.70;1.20;;;15.90;95.40;;;;;;5069042;28;20115;-78
2021/12/23 13:11:18;;;;;;;4.50;1.60;;;15.70;95.20;;;;;;5055186;28;20610;-76
2021/12/23 13:13:46;;;;;;;3.17;1.02;;;15.50;95.30;;;;;;5071423;28;20028;-79
2021/12/23 13:16:23;;;;;;;3.42;1.20;;;15.30;95.30;;;;;;5072053;28;20432;-76
2021/12/23 13:19:08;;;;;;;;;;;15.00;95.50;;;;;;5070670;28;20112;-75
2021/12/23 13:21:43;;;;;;;2.10;1.08;;;14.90;95.70;;;;;;5070389;28;20228;-79
2021/12/23 13:24:13;;;;;;;2.70;0.95;;;14.70;96.00;;;;;;5070095;28;20119;-76
2021/12/23 13:26:39;;;;;;;5.28;1.30;;;14.60;96.20;;;;;;5070103;28;20412;-75
2021/12/23 13:29:07;;;;;;;7.97;1.95;;;14.50;96.40;;;;;;5050855;28;20151;-78
2021/12/23 13:31:35;;;;;;;4.55;1.10;;;14.50;96.50;;;;;;5071478;28;20066;-77
2021/12/23 13:34:05;;;;;;;5.45;2.03;;;14.50;96.50;;;;;;5053410;28;20033;-76
2021/12/23 13:36:38;;;;;;;8.75;3.15;;;14.50;96.50;;;;;;5071335;28;20025;-77
2021/12/23 13:39:11;;;;;;;7.40;1.23;;;14.50;96.50;;;;;;5070912;28;20069;-76
2021/12/23 13:41:41;;;;;;;5.32;1.45;;;14.50;96.50;;;;;;5071820;28;20028;-79
2021/12/23 13:44:28;;;;;;;4.57;0.88;;;14.50;96.50;;;;;;5071579;28;20024;-76
2021/12/23 13:47:03;;;;;;;4.72;1.48;;;14.40;96.60;;;;;;5070553;28;20405;-78
2021/12/23 13:49:49;;;;;;;5.28;1.35;;;14.40;96.60;;;;;;5071659;28;20031;-76
2021/12/23 13:52:26;;;;;;;6.15;1.15;;;14.40;96.70;;;;;;5070242;28;20065;-79
2021/12/23 13:54:59;;;;;;;6.00;1.10;;;14.30;96.70;;;;;;5070275;28;20034;-74
2021/12/23 13:57:27;;;;;;;10.30;1.63;;;14.40;96.90;;;;;;5069405;28;20067;-76